sensor_id;sensor_type;location;lat;lon;timestamp;pressure;altitude;pressure_sealevel;temperature;humidity
74079;BME280;62437;51.544;-3.276;2022-12-22T00:01:40;99708.18;;;5.33;65.72
74079;BME280;62437;51.544;-3.276;2022-12-22T00:04:08;99707.06;;;5.27;65.82
74079;BME280;62437;51.544;-3.276;2022-12-22T00:06:32;99704.78;;;5.07;65.74
74079;BME280;62437;51.544;-3.276;2022-12-22T00:08:57;99708.93;;;5.15;65.41
74079;BME280;62437;51.544;-3.276;2022-12-22T00:11:23;99704.44;;;5.28;65.02
74079;BME280;62437;51.544;-3.276;2022-12-22T00:13:49;99705.63;;;5.22;65.53
74079;BME280;62437;51.544;-3.276;2022-12-22T00:16:15;99703.14;;;5.22;65.77
74079;BME280;62437;51.544;-3.276;2022-12-22T00:18:40;99705.32;;;5.07;65.73
74079;BME280;62437;51.544;-3.276;2022-12-22T00:21:09;99707.38;;;5.23;65.21
74079;BME280;62437;51.544;-3.276;2022-12-22T00:23:32;99706.49;;;5.44;64.75
74079;BME280;62437;51.544;-3.276;2022-12-22T00:25:58;99707.28;;;5.10;64.86
74079;BME280;62437;51.544;-3.276;2022-12-22T00:28:23;99705.26;;;5.48;65.15
74079;BME280;62437;51.544;-3.276;2022-12-22T00:30:50;99707.74;;;5.22;65.91
74079;BME280;62437;51.544;-3.276;2022-12-22T00:33:16;99705.39;;;5.33;65.22
74079;BME280;62437;51.544;-3.276;2022-12-22T00:35:41;99701.12;;;5.31;65.47
74079;BME280;62437;51.544;-3.276;2022-12-22T00:38:13;99695.46;;;5.48;65.02
74079;BME280;62437;51.544;-3.276;2022-12-22T00:40:32;99693.99;;;5.65;64.75
74079;BME280;62437;51.544;-3.276;2022-12-22T00:42:58;99699.64;;;5.50;64.93
74079;BME280;62437;51.544;-3.276;2022-12-22T00:45:24;99695.39;;;5.51;63.14
74079;BME280;62437;51.544;-3.276;2022-12-22T00:47:49;99691.83;;;5.50;64.21
74079;BME280;62437;51.544;-3.276;2022-12-22T00:50:15;99682.83;;;5.04;65.22
74079;BME280;62437;51.544;-3.276;2022-12-22T00:52:41;99686.88;;;4.87;65.75
74079;BME280;62437;51.544;-3.276;2022-12-22T00:55:12;99686.57;;;5.24;64.76
74079;BME280;62437;51.544;-3.276;2022-12-22T00:57:32;99686.26;;;5.02;65.16
74079;BME280;62437;51.544;-3.276;2022-12-22T00:59:58;99683.81;;;5.25;65.17
74079;BME280;62437;51.544;-3.276;2022-12-22T01:02:24;99689.42;;;4.90;66.20
74079;BME280;62437;51.544;-3.276;2022-12-22T01:04:50;99691.76;;;5.15;65.60
74079;BME280;62437;51.544;-3.276;2022-12-22T01:07:17;99688.25;;;5.56;64.62
74079;BME280;62437;51.544;-3.276;2022-12-22T01:09:46;99692.01;;;5.49;63.99
74079;BME280;62437;51.544;-3.276;2022-12-22T01:12:11;99692.40;;;5.53;63.79
74079;BME280;62437;51.544;-3.276;2022-12-22T01:14:32;99694.04;;;5.41;64.07
74079;BME280;62437;51.544;-3.276;2022-12-22T01:16:58;99688.92;;;5.83;63.12
74079;BME280;62437;51.544;-3.276;2022-12-22T01:19:24;99693.44;;;5.53;64.42
74079;BME280;62437;51.544;-3.276;2022-12-22T01:21:50;99693.69;;;5.32;64.70
74079;BME280;62437;51.544;-3.276;2022-12-22T01:24:17;99691.79;;;5.30;64.19
74079;BME280;62437;51.544;-3.276;2022-12-22T01:26:41;99695.97;;;5.58;64.10
74079;BME280;62437;51.544;-3.276;2022-12-22T01:29:07;99699.58;;;6.07;62.54
74079;BME280;62437;51.544;-3.276;2022-12-22T01:31:32;99706.63;;;5.64;63.66
74079;BME280;62437;51.544;-3.276;2022-12-22T01:33:58;99709.19;;;5.33;64.12
74079;BME280;62437;51.544;-3.276;2022-12-22T01:36:24;99710.98;;;5.54;64.70
74079;BME280;62437;51.544;-3.276;2022-12-22T01:38:50;99710.21;;;5.65;63.70
74079;BME280;62437;51.544;-3.276;2022-12-22T01:41:19;99707.54;;;5.64;63.91
74079;BME280;62437;51.544;-3.276;2022-12-22T01:43:41;99701.17;;;5.75;63.07
74079;BME280;62437;51.544;-3.276;2022-12-22T01:46:18;99696.95;;;5.65;64.30
74079;BME280;62437;51.544;-3.276;2022-12-22T01:48:33;99699.86;;;5.47;64.28
74079;BME280;62437;51.544;-3.276;2022-12-22T01:51:00;99700.83;;;5.65;63.72
74079;BME280;62437;51.544;-3.276;2022-12-22T01:53:26;99698.46;;;5.44;64.30
74079;BME280;62437;51.544;-3.276;2022-12-22T01:55:50;99701.66;;;5.38;63.87
74079;BME280;62437;51.544;-3.276;2022-12-22T01:58:23;99703.69;;;5.49;64.12
74079;BME280;62437;51.544;-3.276;2022-12-22T02:00:42;99714.86;;;5.02;64.81
74079;BME280;62437;51.544;-3.276;2022-12-22T02:03:14;99727.84;;;5.40;64.67
74079;BME280;62437;51.544;-3.276;2022-12-22T02:05:39;99734.26;;;5.64;64.44
74079;BME280;62437;51.544;-3.276;2022-12-22T02:08:06;99735.94;;;5.64;64.35
74079;BME280;62437;51.544;-3.276;2022-12-22T02:10:42;99736.53;;;5.26;64.75
74079;BME280;62437;51.544;-3.276;2022-12-22T02:12:55;99749.86;;;5.21;64.88
74079;BME280;62437;51.544;-3.276;2022-12-22T02:15:21;99756.35;;;5.44;64.85
74079;BME280;62437;51.544;-3.276;2022-12-22T02:17:49;99753.17;;;4.88;65.20
74079;BME280;62437;51.544;-3.276;2022-12-22T02:20:20;99747.72;;;4.59;67.68
74079;BME280;62437;51.544;-3.276;2022-12-22T02:22:41;99747.78;;;5.44;65.20
74079;BME280;62437;51.544;-3.276;2022-12-22T02:25:04;99741.69;;;5.92;63.02
74079;BME280;62437;51.544;-3.276;2022-12-22T02:27:26;99737.67;;;5.69;64.18
74079;BME280;62437;51.544;-3.276;2022-12-22T02:29:52;99744.33;;;5.13;65.23
74079;BME280;62437;51.544;-3.276;2022-12-22T02:32:16;99739.15;;;5.76;64.46
74079;BME280;62437;51.544;-3.276;2022-12-22T02:34:42;99742.68;;;5.21;64.20
74079;BME280;62437;51.544;-3.276;2022-12-22T02:37:14;99736.46;;;5.39;65.30
74079;BME280;62437;51.544;-3.276;2022-12-22T02:39:39;99732.59;;;6.10;63.59
74079;BME280;62437;51.544;-3.276;2022-12-22T02:42:06;99738.21;;;5.96;62.57
74079;BME280;62437;51.544;-3.276;2022-12-22T02:44:31;99742.68;;;6.06;62.36
74079;BME280;62437;51.544;-3.276;2022-12-22T02:46:57;99742.94;;;5.94;63.31
74079;BME280;62437;51.544;-3.276;2022-12-22T02:49:21;99738.23;;;5.63;63.87
74079;BME280;62437;51.544;-3.276;2022-12-22T02:51:45;99740.29;;;5.30;64.71
74079;BME280;62437;51.544;-3.276;2022-12-22T02:54:08;99733.41;;;5.45;64.03
74079;BME280;62437;51.544;-3.276;2022-12-22T02:56:34;99727.12;;;4.48;64.94
74079;BME280;62437;51.544;-3.276;2022-12-22T02:58:59;99722.06;;;4.87;64.60
74079;BME280;62437;51.544;-3.276;2022-12-22T03:01:25;99718.83;;;4.96;63.65
74079;BME280;62437;51.544;-3.276;2022-12-22T03:03:51;99721.18;;;4.55;63.77
74079;BME280;62437;51.544;-3.276;2022-12-22T03:06:17;99731.62;;;4.79;64.22
74079;BME280;62437;51.544;-3.276;2022-12-22T03:08:42;99736.60;;;4.53;64.04
74079;BME280;62437;51.544;-3.276;2022-12-22T03:11:08;99742.57;;;4.34;64.04
74079;BME280;62437;51.544;-3.276;2022-12-22T03:13:34;99750.45;;;4.42;63.66
74079;BME280;62437;51.544;-3.276;2022-12-22T03:16:00;99747.62;;;4.55;63.36
74079;BME280;62437;51.544;-3.276;2022-12-22T03:18:25;99743.31;;;4.19;64.20
74079;BME280;62437;51.544;-3.276;2022-12-22T03:20:51;99737.85;;;4.71;62.98
74079;BME280;62437;51.544;-3.276;2022-12-22T03:23:17;99735.54;;;4.44;63.61
74079;BME280;62437;51.544;-3.276;2022-12-22T03:25:43;99739.73;;;4.44;63.82
74079;BME280;62437;51.544;-3.276;2022-12-22T03:28:09;99740.61;;;4.72;63.53
74079;BME280;62437;51.544;-3.276;2022-12-22T03:30:34;99739.94;;;4.84;63.04
74079;BME280;62437;51.544;-3.276;2022-12-22T03:33:00;99735.99;;;4.70;63.56
74079;BME280;62437;51.544;-3.276;2022-12-22T03:35:26;99738.87;;;4.77;64.01
74079;BME280;62437;51.544;-3.276;2022-12-22T03:37:51;99737.05;;;4.92;63.24
74079;BME280;62437;51.544;-3.276;2022-12-22T03:40:17;99728.29;;;5.18;63.32
74079;BME280;62437;51.544;-3.276;2022-12-22T03:42:43;99731.16;;;5.13;63.11
74079;BME280;62437;51.544;-3.276;2022-12-22T03:45:09;99733.64;;;5.08;64.03
74079;BME280;62437;51.544;-3.276;2022-12-22T03:47:34;99732.25;;;4.86;64.73
74079;BME280;62437;51.544;-3.276;2022-12-22T03:50:00;99731.97;;;5.08;64.87
74079;BME280;62437;51.544;-3.276;2022-12-22T03:52:26;99724.53;;;4.57;65.64
74079;BME280;62437;51.544;-3.276;2022-12-22T03:54:52;99729.83;;;4.23;69.33
74079;BME280;62437;51.544;-3.276;2022-12-22T03:57:17;99737.65;;;3.85;69.07
74079;BME280;62437;51.544;-3.276;2022-12-22T03:59:43;99734.76;;;4.05;68.50
74079;BME280;62437;51.544;-3.276;2022-12-22T04:02:09;99740.32;;;4.10;69.15
74079;BME280;62437;51.544;-3.276;2022-12-22T04:04:34;99737.43;;;3.81;69.79
74079;BME280;62437;51.544;-3.276;2022-12-22T04:07:00;99730.80;;;4.04;69.29
74079;BME280;62437;51.544;-3.276;2022-12-22T04:09:26;99723.38;;;4.46;68.88
74079;BME280;62437;51.544;-3.276;2022-12-22T04:11:52;99712.23;;;4.22;67.80
74079;BME280;62437;51.544;-3.276;2022-12-22T04:14:18;99703.48;;;4.17;67.20
74079;BME280;62437;51.544;-3.276;2022-12-22T04:16:43;99701.10;;;4.33;68.16
74079;BME280;62437;51.544;-3.276;2022-12-22T04:19:09;99702.14;;;4.05;68.99
74079;BME280;62437;51.544;-3.276;2022-12-22T04:21:35;99701.78;;;3.86;69.05
74079;BME280;62437;51.544;-3.276;2022-12-22T04:24:01;99699.86;;;4.29;67.86
74079;BME280;62437;51.544;-3.276;2022-12-22T04:26:26;99688.34;;;4.73;66.71
74079;BME280;62437;51.544;-3.276;2022-12-22T04:28:52;99689.40;;;4.64;67.24
74079;BME280;62437;51.544;-3.276;2022-12-22T04:31:18;99685.75;;;4.01;68.71
74079;BME280;62437;51.544;-3.276;2022-12-22T04:33:43;99683.44;;;4.61;67.01
74079;BME280;62437;51.544;-3.276;2022-12-22T04:36:10;99681.64;;;4.78;66.74
74079;BME280;62437;51.544;-3.276;2022-12-22T04:38:35;99674.69;;;4.78;65.65
74079;BME280;62437;51.544;-3.276;2022-12-22T04:41:01;99668.10;;;5.12;65.67
74079;BME280;62437;51.544;-3.276;2022-12-22T04:43:26;99668.58;;;4.53;66.51
74079;BME280;62437;51.544;-3.276;2022-12-22T04:45:53;99673.50;;;4.90;65.85
74079;BME280;62437;51.544;-3.276;2022-12-22T04:48:18;99669.56;;;5.14;65.10
74079;BME280;62437;51.544;-3.276;2022-12-22T04:50:44;99662.51;;;5.15;64.45
74079;BME280;62437;51.544;-3.276;2022-12-22T04:53:09;99666.48;;;5.14;64.80
74079;BME280;62437;51.544;-3.276;2022-12-22T04:55:35;99670.38;;;4.45;67.44
74079;BME280;62437;51.544;-3.276;2022-12-22T04:58:01;99676.03;;;4.59;67.61
74079;BME280;62437;51.544;-3.276;2022-12-22T05:00:27;99680.47;;;4.24;68.30
74079;BME280;62437;51.544;-3.276;2022-12-22T05:02:52;99680.61;;;4.42;66.81
74079;BME280;62437;51.544;-3.276;2022-12-22T05:05:18;99677.18;;;4.60;66.69
74079;BME280;62437;51.544;-3.276;2022-12-22T05:07:44;99674.74;;;4.42;66.97
74079;BME280;62437;51.544;-3.276;2022-12-22T05:10:10;99679.88;;;5.21;65.29
74079;BME280;62437;51.544;-3.276;2022-12-22T05:12:35;99676.22;;;4.95;66.15
74079;BME280;62437;51.544;-3.276;2022-12-22T05:15:01;99681.39;;;4.10;68.96
74079;BME280;62437;51.544;-3.276;2022-12-22T05:17:27;99683.62;;;3.48;71.59
74079;BME280;62437;51.544;-3.276;2022-12-22T05:19:53;99676.78;;;4.27;69.44
74079;BME280;62437;51.544;-3.276;2022-12-22T05:22:18;99675.71;;;4.69;67.43
74079;BME280;62437;51.544;-3.276;2022-12-22T05:24:44;99674.14;;;4.91;66.47
74079;BME280;62437;51.544;-3.276;2022-12-22T05:27:10;99673.30;;;4.69;66.24
74079;BME280;62437;51.544;-3.276;2022-12-22T05:29:36;99668.88;;;4.78;65.93
74079;BME280;62437;51.544;-3.276;2022-12-22T05:32:01;99662.21;;;4.75;67.29
74079;BME280;62437;51.544;-3.276;2022-12-22T05:34:27;99666.89;;;3.92;70.53
74079;BME280;62437;51.544;-3.276;2022-12-22T05:36:53;99666.16;;;4.62;66.96
74079;BME280;62437;51.544;-3.276;2022-12-22T05:39:18;99668.92;;;4.88;66.88
74079;BME280;62437;51.544;-3.276;2022-12-22T05:41:44;99666.87;;;4.82;66.21
74079;BME280;62437;51.544;-3.276;2022-12-22T05:44:10;99660.21;;;4.60;67.71
74079;BME280;62437;51.544;-3.276;2022-12-22T05:46:36;99657.88;;;4.58;67.56
74079;BME280;62437;51.544;-3.276;2022-12-22T05:49:02;99651.03;;;4.77;67.62
74079;BME280;62437;51.544;-3.276;2022-12-22T05:51:27;99647.78;;;4.29;69.22
74079;BME280;62437;51.544;-3.276;2022-12-22T05:53:53;99644.24;;;3.98;70.09
74079;BME280;62437;51.544;-3.276;2022-12-22T05:56:19;99640.95;;;3.89;70.10
74079;BME280;62437;51.544;-3.276;2022-12-22T05:58:44;99634.01;;;4.17;68.96
74079;BME280;62437;51.544;-3.276;2022-12-22T06:01:10;99635.22;;;4.71;67.14
74079;BME280;62437;51.544;-3.276;2022-12-22T06:03:36;99630.13;;;4.76;67.76
74079;BME280;62437;51.544;-3.276;2022-12-22T06:06:02;99628.46;;;4.23;69.54
74079;BME280;62437;51.544;-3.276;2022-12-22T06:08:28;99623.45;;;4.28;68.29
74079;BME280;62437;51.544;-3.276;2022-12-22T06:10:53;99622.49;;;4.34;69.25
74079;BME280;62437;51.544;-3.276;2022-12-22T06:13:19;99622.35;;;3.46;72.67
74079;BME280;62437;51.544;-3.276;2022-12-22T06:15:46;99618.78;;;3.71;71.70
74079;BME280;62437;51.544;-3.276;2022-12-22T06:18:10;99623.53;;;4.56;68.48
74079;BME280;62437;51.544;-3.276;2022-12-22T06:20:36;99620.50;;;4.21;69.37
74079;BME280;62437;51.544;-3.276;2022-12-22T06:23:02;99618.38;;;4.35;68.57
74079;BME280;62437;51.544;-3.276;2022-12-22T06:25:28;99618.95;;;4.41;68.65
74079;BME280;62437;51.544;-3.276;2022-12-22T06:27:53;99621.21;;;3.80;71.29
74079;BME280;62437;51.544;-3.276;2022-12-22T06:30:19;99619.54;;;4.33;68.49
74079;BME280;62437;51.544;-3.276;2022-12-22T06:32:45;99621.01;;;4.03;70.50
74079;BME280;62437;51.544;-3.276;2022-12-22T06:35:11;99619.40;;;3.99;70.19
74079;BME280;62437;51.544;-3.276;2022-12-22T06:37:36;99612.74;;;4.76;67.88
74079;BME280;62437;51.544;-3.276;2022-12-22T06:40:03;99609.53;;;5.10;66.99
74079;BME280;62437;51.544;-3.276;2022-12-22T06:42:28;99605.36;;;4.01;72.93
74079;BME280;62437;51.544;-3.276;2022-12-22T06:44:53;99607.94;;;4.56;68.67
74079;BME280;62437;51.544;-3.276;2022-12-22T06:47:19;99610.74;;;3.75;74.05
74079;BME280;62437;51.544;-3.276;2022-12-22T06:49:45;99613.02;;;4.58;67.94
74079;BME280;62437;51.544;-3.276;2022-12-22T06:52:11;99604.50;;;4.61;66.94
74079;BME280;62437;51.544;-3.276;2022-12-22T06:54:36;99600.76;;;4.63;66.94
74079;BME280;62437;51.544;-3.276;2022-12-22T06:57:02;99598.59;;;5.05;65.77
74079;BME280;62437;51.544;-3.276;2022-12-22T06:59:28;99601.56;;;4.84;67.09
74079;BME280;62437;51.544;-3.276;2022-12-22T07:01:54;99599.75;;;4.65;67.10
74079;BME280;62437;51.544;-3.276;2022-12-22T07:04:19;99594.54;;;5.27;65.61
74079;BME280;62437;51.544;-3.276;2022-12-22T07:06:45;99592.69;;;4.40;67.81
74079;BME280;62437;51.544;-3.276;2022-12-22T07:09:11;99584.49;;;3.78;71.78
74079;BME280;62437;51.544;-3.276;2022-12-22T07:11:37;99585.71;;;3.76;72.19
74079;BME280;62437;51.544;-3.276;2022-12-22T07:14:02;99589.65;;;3.87;70.64
74079;BME280;62437;51.544;-3.276;2022-12-22T07:16:28;99584.61;;;4.24;70.13
74079;BME280;62437;51.544;-3.276;2022-12-22T07:18:54;99578.17;;;4.30;69.86
74079;BME280;62437;51.544;-3.276;2022-12-22T07:21:19;99572.82;;;4.53;68.70
74079;BME280;62437;51.544;-3.276;2022-12-22T07:23:45;99570.36;;;4.01;69.40
74079;BME280;62437;51.544;-3.276;2022-12-22T07:26:11;99572.59;;;4.11;69.80
74079;BME280;62437;51.544;-3.276;2022-12-22T07:28:38;99568.56;;;4.42;68.95
74079;BME280;62437;51.544;-3.276;2022-12-22T07:31:02;99562.85;;;3.45;78.01
74079;BME280;62437;51.544;-3.276;2022-12-22T07:33:28;99561.84;;;4.65;68.50
74079;BME280;62437;51.544;-3.276;2022-12-22T07:36:02;99559.46;;;4.15;68.98
74079;BME280;62437;51.544;-3.276;2022-12-22T07:38:20;99561.34;;;4.69;68.22
74079;BME280;62437;51.544;-3.276;2022-12-22T07:40:45;99564.09;;;4.68;67.65
74079;BME280;62437;51.544;-3.276;2022-12-22T07:43:11;99568.67;;;4.44;68.14
74079;BME280;62437;51.544;-3.276;2022-12-22T07:45:37;99567.47;;;4.59;67.78
74079;BME280;62437;51.544;-3.276;2022-12-22T07:48:03;99564.77;;;5.08;66.61
74079;BME280;62437;51.544;-3.276;2022-12-22T07:50:28;99564.74;;;4.98;66.67
74079;BME280;62437;51.544;-3.276;2022-12-22T07:52:55;99568.84;;;4.69;66.24
74079;BME280;62437;51.544;-3.276;2022-12-22T07:55:20;99572.04;;;4.80;67.02
74079;BME280;62437;51.544;-3.276;2022-12-22T07:57:46;99573.46;;;4.80;67.65
74079;BME280;62437;51.544;-3.276;2022-12-22T08:00:13;99582.37;;;4.30;67.88
74079;BME280;62437;51.544;-3.276;2022-12-22T08:02:37;99582.94;;;4.85;66.56
74079;BME280;62437;51.544;-3.276;2022-12-22T08:05:03;99588.32;;;5.01;66.60
74079;BME280;62437;51.544;-3.276;2022-12-22T08:07:29;99590.57;;;5.05;65.86
74079;BME280;62437;51.544;-3.276;2022-12-22T08:09:54;99591.17;;;5.18;66.09
74079;BME280;62437;51.544;-3.276;2022-12-22T08:12:20;99590.18;;;5.03;65.87
74079;BME280;62437;51.544;-3.276;2022-12-22T08:14:46;99591.22;;;5.32;65.72
74079;BME280;62437;51.544;-3.276;2022-12-22T08:17:11;99594.17;;;5.03;65.76
74079;BME280;62437;51.544;-3.276;2022-12-22T08:19:37;99594.40;;;5.35;65.65
74079;BME280;62437;51.544;-3.276;2022-12-22T08:22:03;99594.68;;;5.01;66.41
74079;BME280;62437;51.544;-3.276;2022-12-22T08:24:29;99595.92;;;5.09;66.26
74079;BME280;62437;51.544;-3.276;2022-12-22T08:26:57;99590.51;;;5.01;65.35
74079;BME280;62437;51.544;-3.276;2022-12-22T08:29:22;99587.77;;;5.24;65.23
74079;BME280;62437;51.544;-3.276;2022-12-22T08:31:46;99587.10;;;5.15;65.50
74079;BME280;62437;51.544;-3.276;2022-12-22T08:34:14;99583.06;;;5.02;65.22
74079;BME280;62437;51.544;-3.276;2022-12-22T08:36:40;99583.99;;;5.33;64.94
74079;BME280;62437;51.544;-3.276;2022-12-22T08:39:03;99580.39;;;5.03;65.81
74079;BME280;62437;51.544;-3.276;2022-12-22T08:41:29;99576.02;;;5.17;65.41
74079;BME280;62437;51.544;-3.276;2022-12-22T08:43:55;99573.38;;;5.17;65.47
74079;BME280;62437;51.544;-3.276;2022-12-22T08:46:20;99575.36;;;5.04;65.69
74079;BME280;62437;51.544;-3.276;2022-12-22T08:48:46;99572.19;;;5.25;65.81
74079;BME280;62437;51.544;-3.276;2022-12-22T08:51:12;99566.59;;;5.01;65.83
74079;BME280;62437;51.544;-3.276;2022-12-22T08:53:37;99558.88;;;4.96;65.91
74079;BME280;62437;51.544;-3.276;2022-12-22T08:56:04;99554.84;;;5.01;66.39
74079;BME280;62437;51.544;-3.276;2022-12-22T08:58:29;99546.91;;;4.86;66.25
74079;BME280;62437;51.544;-3.276;2022-12-22T09:00:55;99546.31;;;5.08;66.25
74079;BME280;62437;51.544;-3.276;2022-12-22T09:03:20;99545.44;;;4.97;66.51
74079;BME280;62437;51.544;-3.276;2022-12-22T09:05:46;99548.11;;;4.72;66.60
74079;BME280;62437;51.544;-3.276;2022-12-22T09:08:12;99553.99;;;4.73;67.18
74079;BME280;62437;51.544;-3.276;2022-12-22T09:10:40;99564.58;;;4.77;67.69
74079;BME280;62437;51.544;-3.276;2022-12-22T09:13:03;99560.13;;;4.50;67.81
74079;BME280;62437;51.544;-3.276;2022-12-22T09:15:29;99559.46;;;4.62;67.60
74079;BME280;62437;51.544;-3.276;2022-12-22T09:17:55;99559.74;;;4.46;67.38
74079;BME280;62437;51.544;-3.276;2022-12-22T09:20:20;99564.55;;;4.67;68.14
74079;BME280;62437;51.544;-3.276;2022-12-22T09:22:46;99567.90;;;4.39;69.00
74079;BME280;62437;51.544;-3.276;2022-12-22T09:25:12;99567.40;;;4.70;68.22
74079;BME280;62437;51.544;-3.276;2022-12-22T09:27:38;99570.01;;;4.71;68.23
74079;BME280;62437;51.544;-3.276;2022-12-22T09:30:04;99573.85;;;4.43;67.69
74079;BME280;62437;51.544;-3.276;2022-12-22T09:32:29;99572.86;;;5.02;66.71
74079;BME280;62437;51.544;-3.276;2022-12-22T09:34:55;99576.13;;;4.95;66.30
74079;BME280;62437;51.544;-3.276;2022-12-22T09:37:20;99572.97;;;4.89;66.40
74079;BME280;62437;51.544;-3.276;2022-12-22T09:39:47;99569.04;;;4.81;66.36
74079;BME280;62437;51.544;-3.276;2022-12-22T09:42:14;99566.41;;;5.67;64.41
74079;BME280;62437;51.544;-3.276;2022-12-22T09:44:40;99562.18;;;5.14;65.62
74079;BME280;62437;51.544;-3.276;2022-12-22T09:47:11;99560.52;;;5.03;66.07
74079;BME280;62437;51.544;-3.276;2022-12-22T09:49:30;99561.73;;;4.93;66.29
74079;BME280;62437;51.544;-3.276;2022-12-22T09:51:56;99550.87;;;5.41;65.21
74079;BME280;62437;51.544;-3.276;2022-12-22T09:54:21;99540.26;;;5.77;63.27
74079;BME280;62437;51.544;-3.276;2022-12-22T09:56:46;99542.19;;;5.79;63.51
74079;BME280;62437;51.544;-3.276;2022-12-22T09:59:13;99546.66;;;5.25;64.79
74079;BME280;62437;51.544;-3.276;2022-12-22T10:04:11;99540.25;;;5.67;63.02
74079;BME280;62437;51.544;-3.276;2022-12-22T10:06:34;99541.34;;;5.27;65.23
74079;BME280;62437;51.544;-3.276;2022-12-22T10:08:55;99543.29;;;5.05;65.26
74079;BME280;62437;51.544;-3.276;2022-12-22T10:11:21;99544.17;;;4.97;66.17
74079;BME280;62437;51.544;-3.276;2022-12-22T10:13:47;99541.65;;;4.96;66.33
74079;BME280;62437;51.544;-3.276;2022-12-22T10:16:18;99543.37;;;5.25;66.25
74079;BME280;62437;51.544;-3.276;2022-12-22T10:18:39;99546.83;;;4.85;66.63
74079;BME280;62437;51.544;-3.276;2022-12-22T10:21:09;99554.71;;;4.94;67.06
74079;BME280;62437;51.544;-3.276;2022-12-22T10:23:29;99553.90;;;4.92;66.57
74079;BME280;62437;51.544;-3.276;2022-12-22T10:26:04;99549.99;;;5.07;66.78
74079;BME280;62437;51.544;-3.276;2022-12-22T10:28:24;99548.56;;;4.87;66.88
74079;BME280;62437;51.544;-3.276;2022-12-22T10:30:47;99543.49;;;4.82;67.13
74079;BME280;62437;51.544;-3.276;2022-12-22T10:33:15;99549.47;;;4.74;72.29
74079;BME280;62437;51.544;-3.276;2022-12-22T10:35:45;99548.66;;;5.11;68.31
74079;BME280;62437;51.544;-3.276;2022-12-22T10:38:13;99539.58;;;4.66;68.78
74079;BME280;62437;51.544;-3.276;2022-12-22T10:40:30;99541.61;;;4.26;73.21
74079;BME280;62437;51.544;-3.276;2022-12-22T10:42:55;99536.73;;;4.65;71.47
74079;BME280;62437;51.544;-3.276;2022-12-22T10:45:23;99540.50;;;3.90;72.46
74079;BME280;62437;51.544;-3.276;2022-12-22T10:47:49;99543.44;;;3.66;79.05
74079;BME280;62437;51.544;-3.276;2022-12-22T10:50:13;99536.90;;;3.84;73.11
74079;BME280;62437;51.544;-3.276;2022-12-22T10:52:38;99544.15;;;3.96;78.36
74079;BME280;62437;51.544;-3.276;2022-12-22T10:55:14;99542.32;;;4.32;73.29
74079;BME280;62437;51.544;-3.276;2022-12-22T10:57:30;99543.22;;;3.92;72.45
74079;BME280;62437;51.544;-3.276;2022-12-22T10:59:57;99528.90;;;3.95;76.83
74079;BME280;62437;51.544;-3.276;2022-12-22T11:02:29;99528.13;;;3.69;74.33
74079;BME280;62437;51.544;-3.276;2022-12-22T11:04:48;99534.91;;;3.99;73.26
74079;BME280;62437;51.544;-3.276;2022-12-22T11:07:13;99531.63;;;3.75;73.89
74079;BME280;62437;51.544;-3.276;2022-12-22T11:09:38;99535.11;;;3.51;73.74
74079;BME280;62437;51.544;-3.276;2022-12-22T11:12:11;99523.32;;;4.02;73.77
74079;BME280;62437;51.544;-3.276;2022-12-22T11:14:34;99519.85;;;3.77;75.42
74079;BME280;62437;51.544;-3.276;2022-12-22T11:17:01;99524.67;;;3.64;74.59
74079;BME280;62437;51.544;-3.276;2022-12-22T11:19:35;99519.42;;;3.92;76.63
74079;BME280;62437;51.544;-3.276;2022-12-22T11:21:52;99511.77;;;4.00;86.13
74079;BME280;62437;51.544;-3.276;2022-12-22T11:24:24;99510.49;;;4.15;79.36
74079;BME280;62437;51.544;-3.276;2022-12-22T11:26:44;99513.29;;;3.85;73.72
74079;BME280;62437;51.544;-3.276;2022-12-22T11:29:14;99515.65;;;4.05;89.19
74079;BME280;62437;51.544;-3.276;2022-12-22T11:31:40;99507.20;;;4.24;75.29
74079;BME280;62437;51.544;-3.276;2022-12-22T11:34:03;99501.29;;;4.01;74.46
74079;BME280;62437;51.544;-3.276;2022-12-22T11:36:26;99502.83;;;4.28;73.45
74079;BME280;62437;51.544;-3.276;2022-12-22T11:38:52;99496.75;;;3.98;75.23
74079;BME280;62437;51.544;-3.276;2022-12-22T11:41:24;99492.61;;;4.03;81.53
74079;BME280;62437;51.544;-3.276;2022-12-22T11:43:47;99492.20;;;3.97;85.07
74079;BME280;62437;51.544;-3.276;2022-12-22T11:46:17;99491.42;;;4.56;87.37
74079;BME280;62437;51.544;-3.276;2022-12-22T11:48:43;99492.47;;;4.84;70.51
74079;BME280;62437;51.544;-3.276;2022-12-22T11:51:00;99494.12;;;4.41;87.93
74079;BME280;62437;51.544;-3.276;2022-12-22T11:55:57;99493.05;;;4.13;74.29
74079;BME280;62437;51.544;-3.276;2022-12-22T11:58:25;99490.76;;;4.30;81.04
74079;BME280;62437;51.544;-3.276;2022-12-22T12:00:44;99484.84;;;4.78;80.11
74079;BME280;62437;51.544;-3.276;2022-12-22T12:03:28;99492.88;;;4.43;82.54
74079;BME280;62437;51.544;-3.276;2022-12-22T12:05:42;99499.70;;;4.56;73.19
74079;BME280;62437;51.544;-3.276;2022-12-22T12:08:03;99507.18;;;4.69;76.69
74079;BME280;62437;51.544;-3.276;2022-12-22T12:10:23;99504.40;;;4.12;84.11
74079;BME280;62437;51.544;-3.276;2022-12-22T12:12:54;99495.63;;;4.16;73.86
74079;BME280;62437;51.544;-3.276;2022-12-22T12:15:22;99497.91;;;3.85;82.39
74079;BME280;62437;51.544;-3.276;2022-12-22T12:17:49;99499.85;;;4.29;74.51
74079;BME280;62437;51.544;-3.276;2022-12-22T12:20:20;99498.69;;;4.76;74.56
74079;BME280;62437;51.544;-3.276;2022-12-22T12:22:39;99497.89;;;4.58;73.37
74079;BME280;62437;51.544;-3.276;2022-12-22T12:24:59;99490.87;;;4.29;78.53
74079;BME280;62437;51.544;-3.276;2022-12-22T12:29:54;99486.96;;;4.51;73.95
74079;BME280;62437;51.544;-3.276;2022-12-22T12:32:17;99482.01;;;4.88;71.59
74079;BME280;62437;51.544;-3.276;2022-12-22T12:34:43;99478.25;;;4.54;73.58
74079;BME280;62437;51.544;-3.276;2022-12-22T12:37:11;99484.83;;;4.62;86.25
74079;BME280;62437;51.544;-3.276;2022-12-22T12:39:34;99478.84;;;5.06;89.00
74079;BME280;62437;51.544;-3.276;2022-12-22T12:42:01;99477.28;;;4.65;73.26
74079;BME280;62437;51.544;-3.276;2022-12-22T12:44:24;99472.76;;;4.76;73.67
74079;BME280;62437;51.544;-3.276;2022-12-22T12:46:56;99478.16;;;5.05;73.35
74079;BME280;62437;51.544;-3.276;2022-12-22T12:51:46;99479.03;;;4.78;75.20
74079;BME280;62437;51.544;-3.276;2022-12-22T12:58:55;99483.21;;;4.73;76.90
74079;BME280;62437;51.544;-3.276;2022-12-22T13:03:47;99472.29;;;4.87;71.83
74079;BME280;62437;51.544;-3.276;2022-12-22T13:13:44;99475.15;;;4.58;74.44
74079;BME280;62437;51.544;-3.276;2022-12-22T13:18:38;99470.46;;;4.58;89.71